Time;durP1;ratioP1;P1;durP2;ratioP2;P2;SDS_P1;SDS_P2;PMS_P1;PMS_P2;Temp;Humidity;BMP_temperature;BMP_pressure;BME280_temperature;BME280_humidity;BME280_pressure;Samples;Min_cycle;Max_cycle;Signal;HPM_P1;HPM_P2
2023/08/28 00:00:34;;;;;;;2.83;2.63;;;15.30;99.90;;;;;;4990255;28;20215;-69
2023/08/28 00:03:00;;;;;;;6.83;3.40;;;15.30;99.90;;;;;;4978179;28;20204;-69
2023/08/28 00:05:29;;;;;;;6.67;3.07;;;15.20;99.90;;;;;;4989459;28;20202;-69
2023/08/28 00:07:55;;;;;;;4.23;3.93;;;15.20;99.90;;;;;;4976393;28;20188;-69
2023/08/28 00:10:20;;;;;;;3.50;3.03;;;15.10;99.90;;;;;;4973584;28;20541;-68
2023/08/28 00:12:46;;;;;;;4.00;3.57;;;15.10;99.90;;;;;;4975205;28;20208;-70
2023/08/28 00:15:12;;;;;;;5.33;3.70;;;15.00;99.90;;;;;;4976830;28;20211;-69
2023/08/28 00:17:38;;;;;;;3.57;3.23;;;15.00;99.90;;;;;;4974078;28;20202;-68
2023/08/28 00:20:07;;;;;;;4.93;3.77;;;15.00;99.90;;;;;;4973568;28;20188;-69
2023/08/28 00:22:33;;;;;;;3.70;3.40;;;15.00;99.90;;;;;;4981244;28;20218;-68
2023/08/28 00:24:59;;;;;;;10.20;3.60;;;15.00;99.90;;;;;;4981515;28;21076;-69
2023/08/28 00:27:24;;;;;;;3.60;3.30;;;14.90;99.90;;;;;;4982234;28;20431;-68
2023/08/28 00:29:50;;;;;;;4.63;3.80;;;15.00;99.90;;;;;;4991623;28;20214;-68
2023/08/28 00:32:15;;;;;;;4.63;4.13;;;15.00;99.90;;;;;;4990131;28;20549;-69
2023/08/28 00:34:41;;;;;;;4.20;2.80;;;15.00;99.90;;;;;;4975620;28;20187;-69
2023/08/28 00:37:06;;;;;;;5.50;3.17;;;15.00;99.90;;;;;;4985267;28;20180;-69
2023/08/28 00:39:32;;;;;;;4.10;3.67;;;15.00;99.90;;;;;;4992718;28;20171;-69
2023/08/28 00:41:57;;;;;;;3.60;3.30;;;15.00;99.90;;;;;;4975331;28;20315;-69
2023/08/28 00:44:23;;;;;;;6.13;3.57;;;15.00;99.90;;;;;;4971846;28;20187;-68
2023/08/28 00:46:49;;;;;;;4.13;3.87;;;15.00;99.90;;;;;;4981597;28;20206;-68
2023/08/28 00:49:15;;;;;;;3.23;2.97;;;15.00;99.90;;;;;;4972070;28;20460;-68
2023/08/28 00:51:41;;;;;;;5.30;3.27;;;14.90;99.90;;;;;;4982682;28;20179;-68
2023/08/28 00:54:07;;;;;;;5.63;3.20;;;15.00;99.90;;;;;;4984311;28;20708;-68
2023/08/28 00:56:33;;;;;;;5.57;3.70;;;15.00;99.90;;;;;;4984071;28;20497;-67
2023/08/28 00:58:59;;;;;;;3.50;3.20;;;15.00;99.90;;;;;;4983397;28;20435;-69
2023/08/28 01:01:25;;;;;;;3.63;3.33;;;14.90;99.90;;;;;;4972438;28;20451;-69
2023/08/28 01:03:50;;;;;;;5.50;3.00;;;14.90;99.90;;;;;;4982675;28;20183;-69
2023/08/28 01:06:21;;;;;;;4.97;3.17;;;15.00;99.90;;;;;;4983957;28;20208;-69
2023/08/28 01:09:00;;;;;;;4.90;2.60;;;15.00;99.90;;;;;;4981384;28;20199;-70
2023/08/28 01:11:56;;;;;;;3.23;2.80;;;15.00;99.90;;;;;;4980011;28;20437;-68
2023/08/28 01:14:28;;;;;;;3.50;2.90;;;15.00;99.90;;;;;;4967682;28;20526;-68
2023/08/28 01:16:57;;;;;;;3.23;2.93;;;14.90;99.90;;;;;;4981408;28;20443;-70
2023/08/28 01:19:35;;;;;;;4.00;3.57;;;14.90;99.90;;;;;;4971842;28;20466;-69
2023/08/28 01:22:28;;;;;;;3.37;2.97;;;14.90;99.90;;;;;;4973629;28;20428;-68
2023/08/28 01:25:09;;;;;;;4.63;3.50;;;14.90;99.90;;;;;;4978677;28;20493;-69
2023/08/28 01:27:40;;;;;;;3.20;2.70;;;14.80;99.90;;;;;;4989536;28;20430;-68
2023/08/28 01:30:11;;;;;;;5.03;2.77;;;14.80;99.90;;;;;;4981925;28;20474;-69
2023/08/28 01:32:38;;;;;;;2.87;2.67;;;14.80;99.90;;;;;;4973248;28;20438;-68
2023/08/28 01:35:28;;;;;;;5.73;3.00;;;14.80;99.90;;;;;;4992263;28;20451;-68
2023/08/28 01:38:19;;;;;;;5.87;2.77;;;14.80;99.90;;;;;;4976668;28;20521;-68
2023/08/28 01:41:06;;;;;;;3.33;3.13;;;14.80;99.90;;;;;;4972430;28;20435;-68
2023/08/28 01:43:36;;;;;;;5.57;3.60;;;14.70;99.90;;;;;;4980702;28;20505;-70
2023/08/28 01:46:02;;;;;;;4.80;2.93;;;14.70;99.90;;;;;;4992611;28;20466;-69
2023/08/28 01:48:28;;;;;;;7.13;3.20;;;14.80;99.90;;;;;;4985665;28;21315;-70
2023/08/28 01:50:54;;;;;;;7.10;2.83;;;14.80;99.90;;;;;;4970833;28;20438;-70
2023/08/28 01:53:25;;;;;;;6.07;2.80;;;14.80;99.90;;;;;;4979172;28;20179;-70
2023/08/28 01:56:13;;;;;;;4.33;2.90;;;14.80;99.90;;;;;;4992223;28;20441;-69
2023/08/28 01:58:41;;;;;;;2.80;2.60;;;14.80;99.90;;;;;;4991604;28;20414;-70
2023/08/28 02:01:07;;;;;;;3.10;2.90;;;14.80;99.90;;;;;;4974373;28;20523;-70
2023/08/28 02:03:33;;;;;;;2.90;2.70;;;14.70;99.90;;;;;;4980599;28;20513;-70
2023/08/28 02:05:58;;;;;;;2.50;2.30;;;14.70;99.90;;;;;;4981991;28;20567;-69
2023/08/28 02:08:24;;;;;;;4.50;2.83;;;14.70;99.90;;;;;;4978028;28;20445;-69
2023/08/28 02:10:52;;;;;;;3.20;2.90;;;14.70;99.90;;;;;;4971917;28;20605;-70
2023/08/28 02:13:17;;;;;;;5.00;2.50;;;14.70;99.90;;;;;;4978601;28;20180;-70
2023/08/28 02:15:43;;;;;;;3.53;2.80;;;14.70;99.90;;;;;;4992107;28;20469;-69
2023/08/28 02:18:08;;;;;;;3.43;3.13;;;14.70;99.90;;;;;;4992155;28;20171;-70
2023/08/28 02:20:33;;;;;;;5.13;3.13;;;14.80;99.90;;;;;;4977566;28;20207;-70
2023/08/28 02:22:59;;;;;;;4.43;3.27;;;14.80;99.90;;;;;;4976008;28;20215;-70
2023/08/28 02:25:25;;;;;;;3.60;3.00;;;14.70;99.90;;;;;;4991989;28;20719;-70
2023/08/28 02:27:50;;;;;;;3.97;3.40;;;14.60;99.90;;;;;;4992062;28;20167;-69
2023/08/28 02:30:19;;;;;;;5.20;3.37;;;14.60;99.90;;;;;;4975577;28;20553;-69
2023/08/28 02:32:45;;;;;;;5.00;3.23;;;14.60;99.90;;;;;;4972270;28;20539;-69
2023/08/28 02:35:11;;;;;;;4.53;3.47;;;14.70;99.90;;;;;;4980660;28;20446;-69
2023/08/28 02:37:37;;;;;;;2.67;2.57;;;14.70;99.90;;;;;;4989167;28;20172;-70
2023/08/28 02:40:04;;;;;;;3.87;3.03;;;14.70;99.90;;;;;;4980242;28;20492;-70
2023/08/28 02:42:29;;;;;;;3.53;3.20;;;14.60;99.90;;;;;;4972510;28;20522;-70
2023/08/28 02:44:55;;;;;;;3.10;2.83;;;14.60;99.90;;;;;;4991527;28;21016;-69
2023/08/28 02:47:20;;;;;;;3.70;3.30;;;14.60;99.90;;;;;;4992813;28;20266;-69
2023/08/28 02:49:47;;;;;;;3.40;3.10;;;14.60;99.90;;;;;;4984127;28;20199;-69
2023/08/28 02:52:12;;;;;;;3.53;3.30;;;14.60;99.90;;;;;;4975574;28;20177;-69
2023/08/28 02:54:38;;;;;;;5.13;2.27;;;14.50;99.90;;;;;;4975904;28;20418;-69
2023/08/28 02:57:03;;;;;;;3.70;2.93;;;14.50;99.90;;;;;;4975635;28;20212;-69
2023/08/28 02:59:29;;;;;;;3.67;3.37;;;14.50;99.90;;;;;;4973617;28;20192;-69
2023/08/28 03:01:54;;;;;;;3.33;3.03;;;14.50;99.90;;;;;;4973967;28;20195;-69
2023/08/28 03:04:20;;;;;;;4.43;3.20;;;14.60;99.90;;;;;;4989997;28;20176;-70
2023/08/28 03:06:45;;;;;;;5.23;3.23;;;14.50;99.90;;;;;;4987916;28;20580;-69
2023/08/28 03:09:12;;;;;;;5.17;3.07;;;14.50;99.90;;;;;;4987944;28;20233;-69
2023/08/28 03:11:38;;;;;;;2.57;2.43;;;14.40;99.90;;;;;;4984694;28;20176;-69
2023/08/28 03:14:04;;;;;;;3.10;2.90;;;14.40;99.90;;;;;;4984124;28;20479;-69
2023/08/28 03:16:30;;;;;;;3.20;2.37;;;14.50;99.90;;;;;;4981975;28;20223;-69
2023/08/28 03:18:55;;;;;;;5.00;2.70;;;14.50;99.90;;;;;;4986160;28;20512;-69
2023/08/28 03:21:22;;;;;;;3.10;2.90;;;14.50;99.90;;;;;;4985920;28;20661;-68
2023/08/28 03:23:47;;;;;;;3.47;3.10;;;14.50;99.90;;;;;;4980167;28;20510;-69
2023/08/28 03:26:13;;;;;;;3.23;2.93;;;14.50;99.90;;;;;;4977636;28;20219;-69
2023/08/28 03:28:38;;;;;;;2.50;2.30;;;14.60;99.90;;;;;;4985113;28;20222;-69
2023/08/28 03:31:04;;;;;;;7.17;3.07;;;14.60;99.90;;;;;;4978628;28;20244;-69
2023/08/28 03:33:30;;;;;;;4.70;2.93;;;14.60;99.90;;;;;;4978446;28;20191;-68
2023/08/28 03:35:56;;;;;;;3.30;2.93;;;14.50;99.90;;;;;;4976686;28;20200;-68
2023/08/28 03:38:21;;;;;;;5.83;3.23;;;14.40;99.90;;;;;;4985050;28;20264;-69
2023/08/28 03:40:47;;;;;;;3.20;2.87;;;14.40;99.90;;;;;;4976902;28;20448;-69
2023/08/28 03:43:13;;;;;;;2.83;2.60;;;14.40;99.90;;;;;;4980825;28;20184;-69
2023/08/28 03:45:39;;;;;;;6.50;2.80;;;14.40;99.90;;;;;;4968029;28;20594;-68
2023/08/28 03:48:05;;;;;;;3.77;3.37;;;14.40;99.90;;;;;;4980055;28;20441;-68
2023/08/28 03:50:31;;;;;;;3.40;3.20;;;14.30;99.90;;;;;;4976989;28;20274;-68
2023/08/28 03:52:58;;;;;;;3.57;3.00;;;14.40;99.90;;;;;;4984270;28;20522;-69
2023/08/28 03:55:24;;;;;;;3.97;3.10;;;14.40;99.90;;;;;;4983445;28;20208;-68
2023/08/28 03:57:50;;;;;;;6.23;2.60;;;14.40;99.90;;;;;;4983581;28;20450;-68
2023/08/28 04:00:18;;;;;;;4.00;2.63;;;14.40;99.90;;;;;;4986133;28;20475;-69
2023/08/28 04:02:46;;;;;;;4.80;3.10;;;14.40;99.90;;;;;;4983855;28;20526;-68
2023/08/28 04:05:12;;;;;;;2.73;2.50;;;14.50;99.90;;;;;;4979535;28;20462;-69
2023/08/28 04:07:37;;;;;;;3.80;3.10;;;14.50;99.90;;;;;;4983159;28;20463;-68
2023/08/28 04:10:03;;;;;;;3.50;3.20;;;14.50;99.90;;;;;;4985540;28;20504;-69
2023/08/28 04:12:29;;;;;;;5.33;3.10;;;14.50;99.90;;;;;;4980776;28;20717;-69
2023/08/28 04:14:54;;;;;;;3.37;3.00;;;14.50;99.90;;;;;;4984926;28;20545;-69
2023/08/28 04:17:20;;;;;;;3.70;3.40;;;14.50;99.90;;;;;;4975864;28;20211;-69
2023/08/28 04:19:49;;;;;;;5.43;3.50;;;14.50;99.90;;;;;;4980938;28;20205;-69
2023/08/28 04:22:14;;;;;;;3.57;3.00;;;14.50;99.90;;;;;;4981136;28;20179;-69
2023/08/28 04:24:40;;;;;;;3.10;2.90;;;14.50;99.90;;;;;;4976508;28;20550;-69
2023/08/28 04:27:05;;;;;;;7.83;4.60;;;14.50;99.90;;;;;;4976195;28;20226;-68
2023/08/28 04:29:31;;;;;;;3.10;2.90;;;14.50;99.90;;;;;;4984572;28;20661;-68
2023/08/28 04:31:56;;;;;;;4.30;3.40;;;14.50;99.90;;;;;;4972580;28;20219;-68
2023/08/28 04:34:22;;;;;;;3.97;2.73;;;14.50;99.90;;;;;;4979571;28;20184;-69
2023/08/28 04:36:47;;;;;;;8.43;3.13;;;14.50;99.90;;;;;;4976321;28;20204;-69
2023/08/28 04:39:13;;;;;;;2.83;2.63;;;14.50;99.90;;;;;;4979084;28;20180;-69
2023/08/28 04:41:38;;;;;;;3.03;2.63;;;14.50;99.90;;;;;;4973012;28;20185;-68
2023/08/28 04:44:04;;;;;;;4.03;2.77;;;14.50;99.90;;;;;;4981176;28;20270;-69
2023/08/28 04:46:29;;;;;;;4.70;3.07;;;14.40;99.90;;;;;;4975821;28;20299;-69
2023/08/28 04:48:55;;;;;;;4.57;3.03;;;14.30;99.90;;;;;;4974928;28;20203;-69
2023/08/28 04:51:20;;;;;;;3.27;2.97;;;14.30;99.90;;;;;;4977911;28;20564;-69
2023/08/28 04:53:46;;;;;;;6.37;3.20;;;14.30;99.90;;;;;;4974359;28;20254;-69
2023/08/28 04:56:11;;;;;;;3.57;3.20;;;14.30;99.90;;;;;;4968271;28;20208;-69
2023/08/28 04:58:37;;;;;;;4.70;3.00;;;14.30;99.90;;;;;;4967580;28;20191;-69
2023/08/28 05:01:03;;;;;;;3.97;3.60;;;14.30;99.90;;;;;;4974950;28;20176;-69
2023/08/28 05:03:28;;;;;;;6.90;3.90;;;14.30;99.90;;;;;;4961816;28;20239;-69
2023/08/28 05:05:54;;;;;;;4.63;3.90;;;14.40;99.90;;;;;;4971680;28;20259;-68
2023/08/28 05:08:20;;;;;;;7.77;3.80;;;14.50;99.90;;;;;;4978957;28;20185;-69
2023/08/28 05:10:46;;;;;;;3.80;3.50;;;14.50;99.90;;;;;;4982961;28;20188;-68
2023/08/28 05:13:11;;;;;;;5.03;3.67;;;14.40;99.90;;;;;;4974207;28;20527;-68
2023/08/28 05:15:37;;;;;;;5.70;3.70;;;14.40;99.90;;;;;;4976788;28;20250;-68
2023/08/28 05:18:03;;;;;;;3.83;3.40;;;14.40;99.90;;;;;;4984683;28;20194;-68
2023/08/28 05:20:29;;;;;;;4.97;3.73;;;14.40;99.90;;;;;;4991993;28;20176;-68
2023/08/28 05:22:55;;;;;;;5.10;3.90;;;14.40;99.90;;;;;;4982403;28;20470;-67
2023/08/28 05:25:20;;;;;;;3.90;3.60;;;14.40;99.90;;;;;;4979100;28;20486;-68
2023/08/28 05:27:46;;;;;;;6.70;4.23;;;14.50;99.90;;;;;;4974774;28;20180;-68
2023/08/28 05:30:12;;;;;;;4.20;3.80;;;14.50;99.90;;;;;;4972211;28;20200;-68
2023/08/28 05:32:38;;;;;;;4.17;3.73;;;14.50;99.90;;;;;;4974724;28;20235;-68
2023/08/28 05:35:05;;;;;;;4.30;3.20;;;14.60;99.90;;;;;;4979539;28;20858;-67
2023/08/28 05:37:31;;;;;;;4.07;3.60;;;14.60;99.90;;;;;;4977432;28;20511;-69
2023/08/28 05:39:56;;;;;;;6.57;4.10;;;14.60;99.90;;;;;;4991519;28;20434;-68
2023/08/28 05:42:22;;;;;;;5.20;4.27;;;14.60;99.90;;;;;;4979334;28;20215;-68
2023/08/28 05:44:47;;;;;;;4.53;3.60;;;14.60;99.90;;;;;;4980712;28;20306;-68
2023/08/28 05:47:13;;;;;;;5.90;4.07;;;14.70;99.90;;;;;;4972543;28;20179;-68
2023/08/28 05:49:38;;;;;;;4.10;3.80;;;14.70;99.90;;;;;;4975524;28;20556;-68
2023/08/28 05:52:04;;;;;;;6.33;4.23;;;14.70;99.90;;;;;;4971141;28;20192;-68
2023/08/28 05:54:30;;;;;;;9.57;4.03;;;14.80;99.90;;;;;;4954936;28;20635;-68
2023/08/28 05:56:55;;;;;;;7.03;4.10;;;14.80;99.90;;;;;;4963618;28;20678;-68
2023/08/28 05:59:21;;;;;;;4.20;3.80;;;14.70;99.90;;;;;;4970194;28;20570;-68
2023/08/28 06:01:46;;;;;;;4.67;4.07;;;14.80;99.90;;;;;;4979217;28;20188;-68
2023/08/28 06:04:12;;;;;;;3.43;3.13;;;14.80;99.90;;;;;;4972732;28;20181;-68
2023/08/28 06:06:38;;;;;;;6.30;4.53;;;14.90;99.90;;;;;;4972361;28;20211;-69
2023/08/28 06:09:04;;;;;;;4.00;3.60;;;14.90;99.90;;;;;;4953840;28;20288;-69
2023/08/28 06:11:30;;;;;;;4.03;3.73;;;15.00;99.90;;;;;;4980133;28;20822;-69
2023/08/28 06:13:56;;;;;;;4.70;4.17;;;15.10;99.90;;;;;;4981750;28;20441;-69
2023/08/28 06:16:21;;;;;;;4.00;3.40;;;15.10;99.90;;;;;;4987089;28;20286;-68
2023/08/28 06:18:47;;;;;;;5.47;4.10;;;15.10;99.90;;;;;;4977592;28;20176;-69
2023/08/28 06:21:12;;;;;;;4.87;3.90;;;15.20;99.90;;;;;;4968446;28;20188;-68
2023/08/28 06:23:38;;;;;;;5.27;4.77;;;15.20;99.90;;;;;;4974082;28;20201;-69
2023/08/28 06:26:03;;;;;;;6.50;4.07;;;15.30;99.90;;;;;;4967452;28;20212;-69
2023/08/28 06:28:29;;;;;;;4.97;4.53;;;15.20;99.90;;;;;;4958537;28;20668;-69
2023/08/28 06:30:55;;;;;;;7.83;4.70;;;15.30;99.90;;;;;;4968250;28;20180;-69
2023/08/28 06:33:20;;;;;;;6.00;5.40;;;15.50;99.90;;;;;;4981311;28;20419;-70
2023/08/28 06:35:46;;;;;;;6.43;5.40;;;15.50;99.90;;;;;;4993775;28;20202;-69
2023/08/28 06:38:12;;;;;;;6.93;5.03;;;15.60;99.90;;;;;;4977867;28;20657;-68
2023/08/28 06:40:38;;;;;;;9.60;6.73;;;15.60;99.90;;;;;;4975413;28;20560;-68
2023/08/28 06:43:03;;;;;;;9.33;4.77;;;15.60;99.90;;;;;;4974732;28;20188;-70
2023/08/28 06:45:29;;;;;;;10.80;5.60;;;15.70;99.90;;;;;;4973986;28;20690;-69
2023/08/28 06:47:57;;;;;;;9.37;4.80;;;15.70;99.90;;;;;;4975489;28;20207;-68
2023/08/28 06:50:23;;;;;;;9.77;7.77;;;15.70;99.90;;;;;;4979532;28;20462;-69
2023/08/28 06:52:48;;;;;;;7.63;5.73;;;15.70;99.90;;;;;;4993504;28;20430;-70
2023/08/28 06:55:14;;;;;;;6.27;5.60;;;15.70;99.90;;;;;;4975776;28;20244;-69
2023/08/28 06:57:39;;;;;;;8.00;5.83;;;15.80;99.90;;;;;;4984753;28;20179;-69
2023/08/28 07:00:06;;;;;;;8.83;6.13;;;15.80;99.90;;;;;;4974693;28;20184;-69
2023/08/28 07:02:32;;;;;;;6.70;6.20;;;15.80;99.90;;;;;;4975402;28;20182;-69
2023/08/28 07:04:57;;;;;;;8.80;7.27;;;15.80;99.90;;;;;;4974893;28;20481;-69
2023/08/28 07:07:23;;;;;;;6.70;5.97;;;15.70;99.90;;;;;;4972481;28;20452;-69
2023/08/28 07:09:49;;;;;;;7.50;6.70;;;15.60;99.90;;;;;;4981876;28;20584;-69
2023/08/28 07:12:14;;;;;;;7.00;6.30;;;15.70;99.90;;;;;;4976669;28;20180;-68
2023/08/28 07:14:40;;;;;;;7.97;6.50;;;15.70;99.90;;;;;;4974774;28;20207;-69
2023/08/28 07:17:06;;;;;;;7.40;6.70;;;15.70;99.90;;;;;;4974591;28;20654;-69
2023/08/28 07:19:32;;;;;;;8.67;7.07;;;15.70;99.90;;;;;;4982540;28;20203;-69
2023/08/28 07:21:59;;;;;;;8.50;7.80;;;15.70;99.90;;;;;;4994147;28;20266;-68
2023/08/28 07:24:25;;;;;;;8.00;6.87;;;15.60;99.90;;;;;;4984299;28;20411;-69
2023/08/28 07:26:51;;;;;;;8.13;5.90;;;15.60;99.90;;;;;;4974984;28;20501;-67
2023/08/28 07:29:17;;;;;;;9.60;6.63;;;15.70;99.90;;;;;;4972911;28;20682;-70
2023/08/28 07:31:42;;;;;;;7.90;7.20;;;15.70;99.90;;;;;;4984572;28;20669;-70
2023/08/28 07:34:08;;;;;;;7.53;6.93;;;15.70;99.90;;;;;;4973527;28;20532;-70
2023/08/28 07:36:37;;;;;;;8.37;7.67;;;15.70;99.90;;;;;;4974640;28;20193;-70
2023/08/28 07:39:02;;;;;;;7.73;7.00;;;15.80;99.90;;;;;;4974078;28;20211;-70
2023/08/28 07:41:28;;;;;;;6.53;6.03;;;15.80;99.90;;;;;;4973957;28;20536;-70
2023/08/28 07:43:53;;;;;;;7.60;7.00;;;15.80;99.90;;;;;;4985061;28;20909;-70
2023/08/28 07:46:19;;;;;;;9.07;8.33;;;15.90;99.90;;;;;;4981258;28;20211;-70
2023/08/28 07:48:45;;;;;;;6.47;6.07;;;16.10;99.90;;;;;;4973613;28;20235;-70
2023/08/28 07:51:10;;;;;;;5.97;5.50;;;16.10;99.90;;;;;;4965224;28;20268;-70
2023/08/28 07:53:37;;;;;;;6.43;5.20;;;16.30;99.90;;;;;;4969246;28;20181;-70
2023/08/28 07:56:03;;;;;;;7.50;6.90;;;16.30;99.90;;;;;;4985404;28;20206;-70
2023/08/28 07:58:29;;;;;;;10.80;7.17;;;16.50;99.90;;;;;;4987344;28;20735;-70
2023/08/28 08:00:56;;;;;;;5.57;5.17;;;16.60;99.90;;;;;;4981318;28;20929;-70
2023/08/28 08:03:22;;;;;;;5.67;5.20;;;16.60;99.90;;;;;;4975712;28;20444;-70
2023/08/28 08:05:47;;;;;;;6.43;5.20;;;16.60;99.90;;;;;;4976008;28;20448;-70
2023/08/28 08:08:13;;;;;;;5.53;4.90;;;16.60;99.90;;;;;;4982608;28;20187;-69
2023/08/28 08:10:39;;;;;;;6.17;5.60;;;16.60;99.90;;;;;;4990636;28;20689;-70
2023/08/28 08:13:04;;;;;;;5.90;5.40;;;16.70;99.90;;;;;;4986266;28;20179;-70
2023/08/28 08:15:31;;;;;;;6.40;5.80;;;16.80;99.90;;;;;;4981674;28;20756;-70
2023/08/28 08:17:57;;;;;;;5.27;4.87;;;16.90;99.90;;;;;;4992874;28;20721;-70
2023/08/28 08:20:23;;;;;;;6.20;5.73;;;17.00;99.90;;;;;;4979679;28;20514;-70
2023/08/28 08:22:48;;;;;;;9.50;6.53;;;16.90;99.90;;;;;;4973631;28;20184;-70
2023/08/28 08:25:14;;;;;;;8.10;5.70;;;17.00;99.90;;;;;;4973264;28;20203;-70
2023/08/28 08:27:44;;;;;;;6.13;5.53;;;17.10;99.90;;;;;;4981873;28;20647;-70
2023/08/28 08:30:10;;;;;;;6.20;5.70;;;17.20;99.90;;;;;;4992640;28;20593;-70
2023/08/28 08:32:36;;;;;;;5.67;5.10;;;17.20;99.90;;;;;;4993287;28;20403;-70
2023/08/28 08:35:05;;;;;;;5.40;4.90;;;17.10;99.90;;;;;;4993114;28;20419;-70
2023/08/28 08:37:31;;;;;;;5.00;4.13;;;17.00;99.90;;;;;;4974551;28;20262;-70
2023/08/28 08:39:56;;;;;;;4.20;3.90;;;17.00;99.90;;;;;;4972281;28;20586;-70
2023/08/28 08:42:22;;;;;;;4.53;4.23;;;17.00;99.90;;;;;;4988363;28;20428;-70
2023/08/28 08:44:48;;;;;;;4.80;4.40;;;17.00;99.90;;;;;;4992778;28;20254;-70
2023/08/28 08:47:15;;;;;;;4.60;4.20;;;17.00;99.90;;;;;;4993055;28;20664;-70
2023/08/28 08:49:43;;;;;;;4.60;4.20;;;17.10;99.90;;;;;;4982735;28;20543;-70
2023/08/28 08:52:10;;;;;;;4.50;4.10;;;17.10;99.90;;;;;;4973219;28;20445;-69
2023/08/28 08:54:40;;;;;;;4.63;3.90;;;17.00;99.90;;;;;;4973135;28;20430;-70
2023/08/28 08:57:15;;;;;;;4.47;3.90;;;16.90;99.90;;;;;;4972999;28;20446;-70
2023/08/28 08:59:41;;;;;;;3.60;3.30;;;17.10;99.90;;;;;;4972665;28;20435;-70
2023/08/28 09:02:09;;;;;;;3.50;3.20;;;17.20;99.90;;;;;;4976118;28;20517;-70
2023/08/28 09:04:35;;;;;;;3.13;2.93;;;17.30;99.90;;;;;;4984684;28;20427;-70
2023/08/28 09:07:03;;;;;;;3.70;3.50;;;17.50;99.90;;;;;;4992256;28;20505;-70
2023/08/28 09:09:30;;;;;;;3.50;3.20;;;17.40;99.90;;;;;;4975789;28;20686;-70
2023/08/28 09:11:56;;;;;;;3.50;3.30;;;17.40;99.90;;;;;;4972756;28;20822;-69
2023/08/28 09:14:22;;;;;;;3.77;3.40;;;17.30;99.90;;;;;;4970820;28;20439;-66
2023/08/28 09:16:47;;;;;;;3.43;3.20;;;17.40;99.90;;;;;;4979253;28;20211;-71
2023/08/28 09:19:13;;;;;;;4.13;3.70;;;17.30;99.90;;;;;;4983301;28;20182;-70
2023/08/28 09:21:38;;;;;;;5.10;4.40;;;17.40;99.90;;;;;;4972456;28;20543;-69
2023/08/28 09:24:08;;;;;;;3.63;2.57;;;17.50;99.90;;;;;;4974029;28;20187;-70
2023/08/28 09:26:36;;;;;;;3.10;2.80;;;17.50;99.90;;;;;;4980016;28;20200;-72
2023/08/28 09:29:04;;;;;;;2.70;2.50;;;17.60;99.90;;;;;;4972393;28;20470;-70
2023/08/28 09:31:31;;;;;;;3.10;2.80;;;17.60;99.90;;;;;;4967784;28;20930;-70
2023/08/28 09:33:56;;;;;;;2.77;2.57;;;17.80;99.90;;;;;;4975428;28;20437;-70
2023/08/28 09:36:22;;;;;;;3.30;2.40;;;17.90;99.90;;;;;;4977808;28;20444;-71
2023/08/28 09:38:48;;;;;;;4.00;2.40;;;18.30;99.90;;;;;;4972476;28;20637;-65
2023/08/28 09:41:13;;;;;;;5.43;2.60;;;18.10;99.90;;;;;;4972891;28;20251;-66
2023/08/28 09:43:39;;;;;;;2.77;2.57;;;18.40;99.90;;;;;;4980676;28;20266;-67
2023/08/28 09:46:06;;;;;;;2.53;2.40;;;18.60;99.90;;;;;;4972056;28;20583;-71
2023/08/28 09:48:32;;;;;;;2.73;2.43;;;18.80;99.90;;;;;;4965498;28;20234;-67
2023/08/28 09:51:06;;;;;;;3.77;2.33;;;18.90;99.90;;;;;;4973185;28;20563;-67
2023/08/28 09:53:32;;;;;;;3.27;2.43;;;19.00;99.90;;;;;;4972317;28;20423;-66
2023/08/28 09:55:58;;;;;;;5.97;2.33;;;19.30;99.90;;;;;;4982309;28;20455;-67
2023/08/28 09:58:28;;;;;;;5.43;2.30;;;19.50;99.90;;;;;;4989807;28;20418;-67
2023/08/28 10:00:57;;;;;;;2.90;2.63;;;19.60;99.90;;;;;;4995116;28;20422;-66
2023/08/28 10:03:24;;;;;;;5.03;2.37;;;19.80;99.90;;;;;;4975899;28;20827;-67
2023/08/28 10:05:51;;;;;;;7.20;2.23;;;19.80;99.90;;;;;;4975932;28;20455;-66
2023/08/28 10:08:17;;;;;;;2.83;2.63;;;19.90;99.90;;;;;;4987237;28;20541;-67
2023/08/28 10:10:46;;;;;;;2.63;2.43;;;20.00;99.90;;;;;;4978576;28;20557;-67
2023/08/28 10:13:19;;;;;;;3.20;3.00;;;19.90;99.90;;;;;;4969754;28;20176;-68
2023/08/28 10:16:04;;;;;;;2.67;2.47;;;19.90;99.90;;;;;;4970477;28;20611;-68
2023/08/28 10:18:37;;;;;;;2.60;2.40;;;20.30;99.90;;;;;;4972500;28;20481;-67
2023/08/28 10:21:04;;;;;;;7.20;3.00;;;20.70;99.90;;;;;;4974774;28;20450;-66
2023/08/28 10:23:31;;;;;;;2.40;2.20;;;21.00;99.90;;;;;;4976240;28;20960;-64
2023/08/28 10:25:58;;;;;;;2.87;2.67;;;21.20;99.90;;;;;;4973029;28;20458;-65
2023/08/28 10:28:25;;;;;;;2.63;2.43;;;21.40;99.90;;;;;;4979185;28;20798;-66
2023/08/28 10:30:51;;;;;;;2.77;2.53;;;21.40;99.90;;;;;;4974633;28;20471;-67
2023/08/28 10:33:22;;;;;;;2.50;2.30;;;21.40;99.90;;;;;;4972756;28;20519;-66
2023/08/28 10:35:53;;;;;;;2.40;1.90;;;21.30;99.90;;;;;;4977114;28;20454;-66
2023/08/28 10:38:22;;;;;;;3.00;2.30;;;21.30;99.90;;;;;;4979222;28;20546;-66
2023/08/28 10:40:50;;;;;;;2.90;2.70;;;21.70;99.90;;;;;;4987218;28;20434;-66
2023/08/28 10:43:19;;;;;;;2.50;2.20;;;21.70;99.90;;;;;;4990126;28;20438;-69
2023/08/28 10:45:46;;;;;;;2.50;2.30;;;21.40;99.90;;;;;;4983199;28;20813;-67
2023/08/28 10:48:12;;;;;;;2.47;2.27;;;21.40;99.90;;;;;;4980741;28;21243;-67
2023/08/28 10:50:38;;;;;;;3.73;2.37;;;21.50;99.90;;;;;;4989412;28;20458;-67
2023/08/28 10:53:04;;;;;;;3.30;1.70;;;21.70;99.90;;;;;;4980891;28;20435;-67
2023/08/28 10:55:30;;;;;;;2.27;2.17;;;21.80;99.90;;;;;;4968931;28;20458;-67
2023/08/28 10:58:01;;;;;;;2.93;2.67;;;22.00;99.90;;;;;;4975053;28;20493;-64
2023/08/28 11:00:28;;;;;;;2.73;2.20;;;21.70;99.90;;;;;;4980650;28;20212;-64
2023/08/28 11:03:06;;;;;;;2.60;1.93;;;21.80;99.90;;;;;;4979180;28;20442;-65
2023/08/28 11:05:32;;;;;;;2.43;1.97;;;21.60;99.90;;;;;;4973183;28;20450;-64
2023/08/28 11:08:03;;;;;;;2.20;1.80;;;21.40;99.90;;;;;;4974106;28;20439;-65
2023/08/28 11:10:29;;;;;;;2.43;1.97;;;21.20;99.90;;;;;;4974532;28;20467;-64
2023/08/28 11:13:02;;;;;;;2.53;2.00;;;21.00;99.90;;;;;;4974723;28;20431;-64
2023/08/28 11:15:35;;;;;;;2.07;1.90;;;20.50;99.90;;;;;;4975698;28;20258;-65
2023/08/28 11:18:37;;;;;;;3.23;2.20;;;20.20;99.90;;;;;;4974196;28;20849;-65
2023/08/28 11:21:06;;;;;;;2.27;1.80;;;19.90;99.90;;;;;;4951959;28;20429;-65
2023/08/28 11:23:41;;;;;;;5.30;2.63;;;19.80;99.90;;;;;;4975293;28;20427;-64
2023/08/28 11:26:16;;;;;;;3.23;2.93;;;19.60;99.90;;;;;;4974912;28;20498;-64
2023/08/28 11:28:44;;;;;;;4.87;3.70;;;19.40;99.90;;;;;;4974116;28;20433;-64
2023/08/28 11:31:11;;;;;;;3.93;3.03;;;19.50;99.90;;;;;;4979077;28;20445;-65
2023/08/28 11:33:49;;;;;;;6.70;3.80;;;19.40;99.90;;;;;;4985235;28;20446;-64
2023/08/28 11:36:18;;;;;;;2.53;2.33;;;19.40;99.90;;;;;;4965561;28;20444;-65
2023/08/28 11:38:43;;;;;;;2.20;2.10;;;19.20;99.90;;;;;;4969481;28;20475;-64
2023/08/28 11:41:10;;;;;;;4.07;2.60;;;19.10;99.90;;;;;;4977095;28;20972;-65
2023/08/28 11:43:40;;;;;;;3.23;2.30;;;19.20;99.90;;;;;;4976992;28;20268;-66
2023/08/28 11:46:07;;;;;;;2.67;2.47;;;19.40;99.90;;;;;;4974825;28;20455;-64
2023/08/28 11:48:53;;;;;;;2.63;2.10;;;19.50;99.90;;;;;;4967376;28;20432;-66
2023/08/28 11:51:25;;;;;;;2.57;2.03;;;19.70;99.90;;;;;;4977709;28;20907;-64
2023/08/28 11:53:50;;;;;;;2.10;2.00;;;19.60;99.90;;;;;;4973066;28;20954;-66
2023/08/28 11:56:16;;;;;;;2.00;1.90;;;19.60;99.90;;;;;;4971644;28;20464;-65
2023/08/28 11:58:41;;;;;;;2.10;1.90;;;19.60;99.90;;;;;;4981275;28;20183;-63
2023/08/28 12:01:08;;;;;;;2.43;2.17;;;19.50;99.90;;;;;;4972673;28;20184;-64
2023/08/28 12:03:37;;;;;;;2.10;2.00;;;19.50;99.90;;;;;;4973468;28;20196;-64
2023/08/28 12:06:06;;;;;;;1.97;1.77;;;19.30;99.90;;;;;;4974700;28;20450;-64
2023/08/28 12:08:33;;;;;;;2.10;2.00;;;19.20;99.90;;;;;;4972823;28;21217;-64
2023/08/28 12:11:00;;;;;;;4.17;2.40;;;19.10;99.90;;;;;;4974018;28;20473;-64
2023/08/28 12:13:25;;;;;;;2.30;2.10;;;19.00;99.90;;;;;;4981400;28;20435;-65
2023/08/28 12:15:51;;;;;;;2.83;1.70;;;19.20;99.90;;;;;;4983997;28;20463;-65
2023/08/28 12:18:16;;;;;;;2.37;2.17;;;19.30;99.90;;;;;;4977792;28;20199;-65
2023/08/28 12:20:42;;;;;;;2.13;1.97;;;19.20;99.90;;;;;;4969700;28;20184;-65
2023/08/28 12:23:11;;;;;;;2.50;2.30;;;19.10;99.90;;;;;;4985901;28;20187;-64
2023/08/28 12:25:39;;;;;;;2.40;2.00;;;19.10;99.90;;;;;;4972966;28;20203;-66
2023/08/28 12:28:10;;;;;;;3.00;2.10;;;19.10;99.90;;;;;;4973676;28;20431;-65
2023/08/28 12:30:40;;;;;;;3.53;2.40;;;19.00;99.90;;;;;;4980518;28;20474;-65
2023/08/28 12:33:06;;;;;;;2.20;2.00;;;18.90;99.90;;;;;;4974462;28;20944;-66
2023/08/28 12:35:39;;;;;;;1.80;1.70;;;18.90;99.90;;;;;;4975233;28;20554;-71
2023/08/28 12:38:05;;;;;;;1.87;1.77;;;18.80;99.90;;;;;;4970942;28;20518;-69
2023/08/28 12:40:35;;;;;;;1.70;1.60;;;18.90;99.90;;;;;;4981266;28;20447;-68
2023/08/28 12:43:03;;;;;;;1.90;1.73;;;18.90;99.90;;;;;;4972442;28;20184;-71
2023/08/28 12:45:31;;;;;;;1.60;1.50;;;19.10;99.90;;;;;;4972861;28;20520;-68